Time;durP1;ratioP1;P1;durP2;ratioP2;P2;SDS_P1;SDS_P2;PMS_P1;PMS_P2;Temp;Humidity;BMP_temperature;BMP_pressure;BME280_temperature;BME280_humidity;BME280_pressure;Samples;Min_cycle;Max_cycle;Signal;HPM_P1;HPM_P2
2022/10/06 05:03:51;;;;;;;7.82;4.18;;;12.50;99.90;;;;;;6164741;23;20049;-73
2022/10/06 05:06:23;;;;;;;6.68;3.92;;;12.60;99.90;;;;;;6213141;23;20005;-73
2022/10/06 05:08:52;;;;;;;9.32;4.40;;;12.60;99.90;;;;;;6213677;23;20009;-74
2022/10/06 05:11:20;;;;;;;6.53;3.72;;;12.60;99.90;;;;;;6213263;23;20290;-73
2022/10/06 05:13:46;;;;;;;9.48;4.20;;;12.70;99.90;;;;;;6188786;23;20016;-73
2022/10/06 05:16:15;;;;;;;9.55;4.30;;;12.80;99.90;;;;;;6214268;23;20006;-72
2022/10/06 05:18:44;;;;;;;10.43;4.20;;;12.80;99.90;;;;;;6213511;23;20295;-76
2022/10/06 05:21:13;;;;;;;11.90;4.43;;;12.90;99.90;;;;;;6213314;23;20005;-73
2022/10/06 05:23:41;;;;;;;9.40;4.68;;;12.90;99.90;;;;;;6213570;23;20005;-73
2022/10/06 05:26:07;;;;;;;15.07;5.20;;;12.90;99.90;;;;;;6165482;23;19997;-73
2022/10/06 05:28:34;;;;;;;9.13;4.45;;;12.90;99.90;;;;;;6212793;23;20321;-73
2022/10/06 05:31:04;;;;;;;10.20;4.53;;;12.90;99.90;;;;;;6213591;23;20076;-73
2022/10/06 05:33:33;;;;;;;10.43;4.40;;;12.90;99.90;;;;;;6213062;23;20060;-74
2022/10/06 05:36:01;;;;;;;8.73;4.15;;;13.00;99.90;;;;;;6213532;23;20052;-73
2022/10/06 05:38:29;;;;;;;9.82;4.38;;;13.10;99.90;;;;;;6213168;23;20002;-74
2022/10/06 05:41:22;;;;;;;11.50;3.90;;;13.10;99.90;;;;;;6165213;23;20044;-74
2022/10/06 05:43:50;;;;;;;10.07;4.40;;;13.20;99.90;;;;;;6188250;23;20009;-74
2022/10/06 05:46:26;;;;;;;8.60;3.95;;;13.20;99.90;;;;;;6212718;23;20005;-74
2022/10/06 05:48:56;;;;;;;9.13;4.20;;;13.30;99.90;;;;;;6187624;23;20064;-74
2022/10/06 05:51:29;;;;;;;12.65;4.63;;;13.30;99.90;;;;;;6212818;23;20013;-73
2022/10/06 05:53:56;;;;;;;10.73;4.57;;;13.40;99.90;;;;;;6163399;23;20012;-74
2022/10/06 05:56:24;;;;;;;10.30;4.60;;;13.40;99.90;;;;;;6213031;23;20005;-74
2022/10/06 05:58:53;;;;;;;9.90;4.15;;;13.30;99.90;;;;;;6164961;23;20004;-73
2022/10/06 06:01:29;;;;;;;9.48;4.28;;;13.30;99.90;;;;;;6165361;23;20008;-74
2022/10/06 06:04:01;;;;;;;8.10;4.03;;;13.30;99.90;;;;;;6193394;23;20013;-73
2022/10/06 06:06:33;;;;;;;9.65;3.97;;;13.30;99.90;;;;;;6217481;23;20104;-73
2022/10/06 06:09:14;;;;;;;7.35;4.40;;;13.40;99.90;;;;;;6217895;23;20013;-78
2022/10/06 06:11:49;;;;;;;8.75;3.85;;;13.40;99.90;;;;;;6193735;23;20295;-76
2022/10/06 06:15:59;;;;;;;9.30;3.70;;;13.40;99.90;;;;;;6218244;23;20213;-79
2022/10/06 06:17:06;;;;;;;6.25;3.33;;;13.50;99.90;;;;;;6217862;23;20068;-78
2022/10/06 06:19:32;;;;;;;7.47;3.50;;;13.50;99.90;;;;;;6218154;23;20017;-78
2022/10/06 06:21:58;;;;;;;7.53;3.30;;;13.60;99.90;;;;;;6218217;23;20034;-77
2022/10/06 06:24:24;;;;;;;9.18;3.55;;;13.60;99.90;;;;;;6191324;23;20009;-75
2022/10/06 06:26:50;;;;;;;6.97;3.40;;;13.60;99.90;;;;;;6193872;23;20040;-75
2022/10/06 06:29:16;;;;;;;9.45;3.55;;;13.70;99.90;;;;;;6220007;23;20061;-75
2022/10/06 06:31:45;;;;;;;6.18;3.30;;;13.70;99.90;;;;;;6216113;23;20009;-77
2022/10/06 06:34:11;;;;;;;7.88;3.63;;;13.70;99.90;;;;;;6192515;23;20009;-78
2022/10/06 06:36:44;;;;;;;11.98;4.00;;;13.80;99.90;;;;;;6191108;23;20337;-76
2022/10/06 06:39:14;;;;;;;7.35;4.07;;;13.90;99.90;;;;;;6191858;23;20066;-78
2022/10/06 06:41:45;;;;;;;8.60;3.90;;;14.00;99.90;;;;;;6190895;23;20040;-77
2022/10/06 06:44:27;;;;;;;7.00;3.70;;;14.10;99.90;;;;;;6191066;23;20048;-75
2022/10/06 06:47:00;;;;;;;7.15;3.38;;;14.10;99.90;;;;;;6192330;23;20096;-79
2022/10/06 06:49:26;;;;;;;11.40;3.88;;;14.20;99.90;;;;;;6216148;23;20011;-77
2022/10/06 06:51:56;;;;;;;7.65;4.18;;;14.30;99.90;;;;;;6195690;23;19993;-76
2022/10/06 06:54:28;;;;;;;7.38;4.00;;;14.40;99.90;;;;;;6217841;23;20092;-76
2022/10/06 06:57:37;;;;;;;8.23;3.97;;;14.50;99.90;;;;;;6194075;23;20012;-78
2022/10/06 07:00:10;;;;;;;5.85;3.15;;;14.60;99.90;;;;;;6095151;23;20006;-77
2022/10/06 07:02:40;;;;;;;7.38;3.60;;;14.70;99.90;;;;;;6127482;23;20025;-78
2022/10/06 07:05:10;;;;;;;8.38;4.25;;;14.80;99.90;;;;;;6135589;23;20001;-78
2022/10/06 07:07:36;;;;;;;7.22;3.50;;;14.90;99.90;;;;;;6135044;23;20093;-76
2022/10/06 07:10:03;;;;;;;9.13;4.13;;;15.00;99.90;;;;;;6160101;23;20017;-77
2022/10/06 07:12:42;;;;;;;10.50;4.00;;;15.20;99.90;;;;;;6159601;23;20017;-77
2022/10/06 07:26:31;;;;;;;9.45;3.90;;;15.70;99.90;;;;;;6159919;23;20006;-77
2022/10/06 07:29:00;;;;;;;8.63;3.58;;;15.90;99.90;;;;;;6160202;23;20028;-78
2022/10/06 07:31:30;;;;;;;13.00;4.97;;;15.90;99.90;;;;;;6159601;23;20205;-76
2022/10/06 07:33:56;;;;;;;10.65;4.47;;;16.00;99.90;;;;;;6160243;23;20314;-76
2022/10/06 07:36:22;;;;;;;6.43;4.18;;;16.00;99.90;;;;;;6177780;23;20015;-77
2022/10/06 07:38:48;;;;;;;10.95;4.40;;;16.00;99.90;;;;;;6251532;23;20011;-79
2022/10/06 07:41:14;;;;;;;13.25;4.40;;;15.90;99.90;;;;;;6226167;23;20008;-79
2022/10/06 07:43:40;;;;;;;9.48;4.88;;;15.90;99.90;;;;;;6225591;23;20027;-80
2022/10/06 07:46:10;;;;;;;10.70;4.00;;;15.70;99.90;;;;;;6253232;23;20258;-79
2022/10/06 07:48:39;;;;;;;6.20;3.85;;;15.90;99.90;;;;;;6225555;23;20027;-80
2022/10/06 07:51:26;;;;;;;7.22;3.40;;;16.10;99.90;;;;;;6225871;23;20008;-76
2022/10/06 07:53:53;;;;;;;8.48;3.90;;;16.20;99.90;;;;;;6250990;23;20175;-78
2022/10/06 07:56:39;;;;;;;8.98;4.85;;;16.40;99.90;;;;;;6251075;23;20248;-80
2022/10/06 07:59:04;;;;;;;8.63;4.50;;;16.70;99.90;;;;;;6253172;23;20023;-76
2022/10/06 08:01:30;;;;;;;10.55;4.85;;;16.90;99.90;;;;;;6225909;22;20000;-76
2022/10/06 08:03:56;;;;;;;7.63;4.00;;;17.20;99.90;;;;;;6252384;23;20095;-77
2022/10/06 08:06:23;;;;;;;5.20;1.92;;;17.30;99.90;;;;;;6252657;23;20092;-77
2022/10/06 08:08:51;;;;;;;5.30;2.30;;;17.60;99.90;;;;;;6226225;23;20270;-77
2022/10/06 08:11:17;;;;;;;6.82;2.80;;;17.80;99.90;;;;;;6253154;23;20000;-77
2022/10/06 08:13:46;;;;;;;7.30;2.88;;;17.80;99.90;;;;;;6252381;23;20058;-78
2022/10/06 08:16:18;;;;;;;17.73;8.38;;;17.90;99.90;;;;;;6226109;23;20011;-77
2022/10/06 08:18:52;;;;;;;8.15;2.80;;;18.00;99.90;;;;;;6250796;23;20324;-80
2022/10/06 08:21:25;;;;;;;7.07;1.88;;;18.00;99.90;;;;;;6252178;23;20167;-80
2022/10/06 08:23:52;;;;;;;4.65;1.60;;;17.90;99.90;;;;;;6226084;23;20476;-78
2022/10/06 08:26:19;;;;;;;5.57;1.70;;;17.90;99.90;;;;;;6252831;23;20225;-78
2022/10/06 08:28:47;;;;;;;5.95;1.58;;;18.10;99.90;;;;;;6252391;23;20058;-80
2022/10/06 08:31:14;;;;;;;4.88;1.40;;;18.10;99.90;;;;;;6201329;23;20037;-81
2022/10/06 08:33:41;;;;;;;5.47;1.50;;;18.10;99.90;;;;;;6252356;23;20270;-80
2022/10/06 08:36:10;;;;;;;3.75;1.23;;;17.90;99.90;;;;;;6252556;23;20063;-78
2022/10/06 08:38:36;;;;;;;;;;;18.00;99.90;;;;;;6251856;23;20266;-79
2022/10/06 08:41:26;;;;;;;6.95;1.30;;;17.90;99.90;;;;;;6251297;23;19900;-80
2022/10/06 08:43:59;;;;;;;3.92;1.10;;;17.90;99.90;;;;;;6252595;23;20193;-81
2022/10/06 08:46:31;;;;;;;4.55;1.10;;;18.00;99.90;;;;;;6252700;23;20274;-83
2022/10/06 08:48:57;;;;;;;5.63;1.50;;;18.10;99.90;;;;;;6251871;23;20066;-82
2022/10/06 08:51:53;;;;;;;5.38;1.55;;;18.10;99.90;;;;;;6226742;23;20260;-79
2022/10/06 08:54:36;;;;;;;4.20;1.08;;;18.20;99.90;;;;;;6228451;23;20019;-79
2022/10/06 08:57:37;;;;;;;4.50;1.02;;;18.30;99.90;;;;;;6228752;23;20000;-77
2022/10/06 09:00:10;;;;;;;6.35;1.70;;;18.50;99.90;;;;;;6227583;23;20298;-80
2022/10/06 09:03:15;;;;;;;7.45;1.80;;;18.60;99.90;;;;;;6197240;23;20012;-81
2022/10/06 09:05:41;;;;;;;4.10;1.08;;;18.60;99.90;;;;;;6247391;23;20035;-79
2022/10/06 09:08:56;;;;;;;4.38;0.90;;;18.70;99.90;;;;;;6197743;23;20170;-81
2022/10/06 09:11:53;;;;;;;2.97;0.80;;;18.70;99.90;;;;;;6196535;23;20008;-80
2022/10/06 09:14:37;;;;;;;2.67;0.80;;;18.80;99.90;;;;;;6221671;23;20008;-80
2022/10/06 09:17:10;;;;;;;2.90;0.90;;;19.00;99.60;;;;;;6223470;23;20044;-81
2022/10/06 09:19:44;;;;;;;5.22;1.15;;;19.00;99.90;;;;;;6221805;23;20004;-80
2022/10/06 09:22:18;;;;;;;4.90;1.20;;;19.10;99.00;;;;;;6222071;23;20032;-78
2022/10/06 09:24:48;;;;;;;5.88;1.15;;;19.10;99.00;;;;;;6247045;23;20009;-80
2022/10/06 09:27:32;;;;;;;3.53;1.00;;;19.10;98.30;;;;;;6247782;23;20013;-79
2022/10/06 09:30:00;;;;;;;4.97;0.90;;;19.20;98.00;;;;;;6223470;23;20005;-81
2022/10/06 09:32:28;;;;;;;2.30;0.63;;;19.20;97.90;;;;;;6247348;23;20008;-81
2022/10/06 09:34:56;;;;;;;2.97;0.80;;;19.40;97.30;;;;;;6247592;23;20055;-83
2022/10/06 09:37:22;;;;;;;3.97;0.67;;;19.50;96.60;;;;;;6247613;23;20028;-79
2022/10/06 09:39:50;;;;;;;6.25;1.00;;;19.50;96.40;;;;;;6246772;23;20179;-82
2022/10/06 09:42:28;;;;;;;4.47;0.90;;;19.70;96.20;;;;;;6247490;23;20012;-79
2022/10/06 09:44:58;;;;;;;7.95;0.85;;;19.70;96.30;;;;;;6223198;23;20024;-79
2022/10/06 09:47:34;;;;;;;3.47;0.80;;;19.70;95.50;;;;;;6247433;23;20015;-81
2022/10/06 09:50:27;;;;;;;3.22;0.88;;;20.00;95.30;;;;;;6223368;23;20011;-80
2022/10/06 09:53:08;;;;;;;4.75;1.00;;;20.00;95.50;;;;;;6247321;23;20064;-80
2022/10/06 09:55:37;;;;;;;4.20;0.70;;;20.10;95.70;;;;;;6246584;23;20013;-79
2022/10/06 09:58:31;;;;;;;3.08;0.95;;;20.10;95.50;;;;;;6222251;23;20024;-79
2022/10/06 10:01:07;;;;;;;8.67;0.97;;;20.20;95.40;;;;;;6248016;23;20104;-82
2022/10/06 10:03:46;;;;;;;4.18;0.80;;;20.20;95.00;;;;;;6228182;23;20013;-78
2022/10/06 10:06:44;;;;;;;3.92;0.95;;;20.40;95.20;;;;;;6191587;23;19997;-77
2022/10/06 10:09:20;;;;;;;4.53;0.93;;;20.50;94.90;;;;;;6142759;23;20055;-78
2022/10/06 10:15:03;;;;;;;5.03;1.40;;;20.70;94.40;;;;;;6192275;23;20013;-81
2022/10/06 10:17:31;;;;;;;3.65;0.80;;;20.60;94.20;;;;;;6216271;23;20331;-79
2022/10/06 10:19:59;;;;;;;6.20;1.20;;;20.50;94.30;;;;;;6192020;23;20001;-78
2022/10/06 10:22:38;;;;;;;4.80;1.30;;;20.60;94.80;;;;;;6166871;23;20405;-79
2022/10/06 10:25:31;;;;;;;3.88;1.00;;;20.60;94.70;;;;;;6191793;23;20242;-77
2022/10/06 10:28:26;;;;;;;2.95;0.88;;;20.60;94.30;;;;;;6191891;23;20018;-77
2022/10/06 10:31:02;;;;;;;26.25;20.88;;;20.40;94.90;;;;;;6191017;23;20005;-77
2022/10/06 10:33:46;;;;;;;5.45;1.38;;;20.40;94.90;;;;;;6193726;23;20072;-75
2022/10/06 10:36:15;;;;;;;8.32;1.58;;;20.60;93.90;;;;;;6192345;23;20286;-76
2022/10/06 10:38:42;;;;;;;4.05;1.05;;;20.40;93.90;;;;;;6216537;23;19993;-80
2022/10/06 10:41:20;;;;;;;5.00;1.07;;;20.40;93.60;;;;;;6217331;23;20005;-77
2022/10/06 10:43:52;;;;;;;5.07;0.73;;;20.40;92.90;;;;;;6215749;23;20424;-78
2022/10/06 10:46:32;;;;;;;4.25;0.95;;;20.80;92.70;;;;;;6192619;23;20020;-78
2022/10/06 10:49:18;;;;;;;2.72;0.65;;;21.10;91.70;;;;;;6191058;23;20308;-79
2022/10/06 10:52:10;;;;;;;4.75;0.90;;;21.00;91.30;;;;;;6218064;23;20064;-77
2022/10/06 10:54:43;;;;;;;3.83;0.70;;;21.50;90.80;;;;;;6194609;23;20009;-79
2022/10/06 10:57:15;;;;;;;4.65;0.85;;;22.10;90.00;;;;;;6200535;23;20021;-76
2022/10/06 10:59:46;;;;;;;5.22;0.80;;;22.30;88.70;;;;;;6204091;23;20045;-77
2022/10/06 11:02:18;;;;;;;5.25;1.13;;;23.10;88.50;;;;;;6179221;23;20004;-76
2022/10/06 11:04:53;;;;;;;4.07;0.70;;;23.90;84.90;;;;;;6237789;23;20008;-77
2022/10/06 11:07:47;;;;;;;4.63;0.70;;;23.80;84.50;;;;;;6253188;23;20000;-77
2022/10/06 11:10:27;;;;;;;7.22;0.98;;;24.20;82.90;;;;;;6241155;23;20020;-77
2022/10/06 11:13:21;;;;;;;5.35;0.75;;;23.80;83.00;;;;;;6200773;23;20012;-79
2022/10/06 11:16:15;;;;;;;3.08;0.70;;;23.50;83.30;;;;;;6225544;23;20012;-79
2022/10/06 11:19:01;;;;;;;3.13;0.85;;;23.80;83.00;;;;;;6225810;23;20059;-80
2022/10/06 11:21:38;;;;;;;4.22;0.80;;;25.20;83.40;;;;;;6227407;23;20035;-76
2022/10/06 11:24:19;;;;;;;2.92;0.57;;;27.00;76.90;;;;;;6252415;23;20004;-76
2022/10/06 11:27:16;;;;;;;4.53;0.70;;;27.30;74.70;;;;;;6226035;23;20001;-77
2022/10/06 11:34:11;;;;;;;5.00;0.70;;;27.90;72.00;;;;;;6220626;23;20012;-78
2022/10/06 11:37:47;;;;;;;3.65;0.85;;;26.80;73.20;;;;;;6194875;23;20047;-77
2022/10/06 11:40:39;;;;;;;4.72;0.75;;;25.80;75.10;;;;;;6107163;23;20104;-82
2022/10/06 11:43:27;;;;;;;4.72;0.65;;;24.90;77.50;;;;;;6130657;23;20028;-77
2022/10/06 11:46:17;;;;;;;3.78;0.70;;;24.80;77.30;;;;;;6105928;23;20024;-77
2022/10/06 11:48:43;;;;;;;5.32;0.88;;;24.30;76.90;;;;;;6105393;23;20017;-79
2022/10/06 11:51:23;;;;;;;4.10;0.95;;;24.30;77.80;;;;;;6131042;23;20502;-78
2022/10/06 11:53:54;;;;;;;4.43;1.13;;;24.10;78.30;;;;;;6105655;23;20019;-76
2022/10/06 11:56:20;;;;;;;6.82;3.08;;;24.10;79.00;;;;;;6131611;23;20021;-77
2022/10/06 11:58:51;;;;;;;4.80;0.77;;;24.10;78.20;;;;;;6105862;23;20013;-79
2022/10/06 12:01:35;;;;;;;6.82;0.90;;;24.20;77.00;;;;;;6130709;23;20057;-76
2022/10/06 12:04:09;;;;;;;6.20;1.13;;;23.90;77.20;;;;;;6084787;23;20019;-78
2022/10/06 12:06:49;;;;;;;5.50;0.80;;;23.60;80.40;;;;;;6048315;23;20015;-79
2022/10/06 12:09:48;;;;;;;5.97;1.30;;;23.50;77.40;;;;;;6073453;23;20014;-76
2022/10/06 12:12:59;;;;;;;5.25;0.80;;;23.60;78.70;;;;;;6192807;23;20005;-77
2022/10/06 12:15:52;;;;;;;9.70;5.03;;;23.70;78.60;;;;;;6191051;23;20310;-79
2022/10/06 12:18:28;;;;;;;6.80;2.00;;;24.00;76.90;;;;;;6191358;23;20060;-77
2022/10/06 12:21:05;;;;;;;3.78;1.17;;;23.80;77.20;;;;;;6190806;23;20183;-78
2022/10/06 12:23:46;;;;;;;4.00;1.00;;;23.90;78.40;;;;;;6192572;23;20008;-76
2022/10/06 12:26:21;;;;;;;4.50;0.80;;;24.00;78.30;;;;;;6191119;23;20338;-77
2022/10/06 12:28:53;;;;;;;3.55;0.80;;;24.30;77.80;;;;;;6191429;23;20056;-81
2022/10/06 12:31:38;;;;;;;5.28;0.93;;;24.40;76.80;;;;;;6193896;23;20001;-76
2022/10/06 12:34:56;;;;;;;7.05;1.23;;;23.90;77.20;;;;;;6192643;23;20371;-77
2022/10/06 12:37:28;;;;;;;4.07;0.88;;;23.50;80.00;;;;;;6168640;23;20056;-76
2022/10/06 12:40:32;;;;;;;6.45;1.10;;;24.00;78.60;;;;;;6192298;23;20220;-76
2022/10/06 12:43:13;;;;;;;4.90;0.75;;;24.60;77.10;;;;;;6191709;23;20063;-79
2022/10/06 12:46:06;;;;;;;4.40;0.82;;;24.90;75.90;;;;;;6194395;23;20072;-77
2022/10/06 12:48:51;;;;;;;2.65;0.63;;;26.00;74.20;;;;;;6192114;23;20005;-79
2022/10/06 12:51:39;;;;;;;4.80;0.85;;;26.70;72.00;;;;;;6192370;23;20068;-77
2022/10/06 12:54:08;;;;;;;5.80;1.25;;;26.50;71.70;;;;;;6193639;23;20009;-78
2022/10/06 12:56:57;;;;;;;4.95;1.00;;;25.80;72.80;;;;;;6192249;23;20175;-77
2022/10/06 12:59:37;;;;;;;7.03;1.50;;;24.90;74.60;;;;;;6193758;23;20283;-79
2022/10/06 13:02:24;;;;;;;3.75;1.10;;;24.00;76.60;;;;;;6192100;23;20012;-76
2022/10/06 13:05:10;;;;;;;5.83;1.73;;;23.60;78.30;;;;;;6192689;23;20028;-78
2022/10/06 13:08:03;;;;;;;4.07;1.08;;;23.70;78.20;;;;;;6191836;23;20785;-79
2022/10/06 13:10:31;;;;;;;5.60;1.00;;;23.90;77.50;;;;;;6190635;23;20068;-77
2022/10/06 13:12:57;;;;;;;4.80;0.98;;;24.00;77.60;;;;;;6192017;23;19997;-77
2022/10/06 13:15:35;;;;;;;9.55;1.48;;;23.70;78.50;;;;;;6193724;23;20016;-78
2022/10/06 13:18:20;;;;;;;7.35;1.45;;;23.40;78.50;;;;;;6193850;23;20151;-77
2022/10/06 13:20:54;;;;;;;6.65;3.40;;;23.10;79.70;;;;;;6193259;23;20005;-76
2022/10/06 13:23:30;;;;;;;4.88;0.85;;;22.80;80.10;;;;;;6193662;23;20001;-78
2022/10/06 13:26:00;;;;;;;5.05;1.30;;;22.40;80.80;;;;;;6192782;23;20028;-77
2022/10/06 13:28:34;;;;;;;4.40;0.88;;;22.30;83.50;;;;;;6193575;23;20012;-77
2022/10/06 13:31:10;;;;;;;7.03;1.10;;;22.10;81.50;;;;;;6192080;23;20064;-75
2022/10/06 13:33:42;;;;;;;6.18;1.08;;;22.10;82.00;;;;;;6192370;23;20028;-78
2022/10/06 13:36:09;;;;;;;4.57;1.08;;;22.10;82.90;;;;;;6192117;23;20076;-78
2022/10/06 13:38:40;;;;;;;5.78;0.93;;;22.20;81.90;;;;;;6193246;23;20001;-75
2022/10/06 13:41:17;;;;;;;4.95;0.98;;;22.20;81.10;;;;;;6216708;23;20012;-74
2022/10/06 13:43:54;;;;;;;5.05;1.02;;;22.00;81.40;;;;;;6191390;23;20001;-76
2022/10/06 13:46:25;;;;;;;6.43;1.00;;;21.90;82.20;;;;;;6192811;23;20035;-75
2022/10/06 13:49:10;;;;;;;5.38;1.25;;;22.00;81.70;;;;;;6193164;23;20009;-78
2022/10/06 13:51:36;;;;;;;6.57;1.25;;;22.10;81.30;;;;;;6194111;23;20008;-77
2022/10/06 13:54:36;;;;;;;6.47;1.55;;;22.10;81.90;;;;;;6193609;23;20028;-75
2022/10/06 13:57:02;;;;;;;5.50;0.93;;;22.30;80.90;;;;;;6192859;23;20243;-76
2022/10/06 13:59:34;;;;;;;5.43;0.88;;;22.60;79.90;;;;;;6193283;23;19993;-76
2022/10/06 14:02:21;;;;;;;5.82;1.20;;;23.00;79.40;;;;;;6192863;23;20012;-76
2022/10/06 14:05:29;;;;;;;4.00;1.03;;;23.30;78.10;;;;;;6190947;23;20017;-78
2022/10/06 14:08:00;;;;;;;3.65;0.90;;;24.90;76.20;;;;;;6193418;23;20054;-80
2022/10/06 14:10:36;;;;;;;3.65;1.05;;;27.20;71.30;;;;;;6193894;23;20005;-77
2022/10/06 14:13:13;;;;;;;2.67;0.82;;;28.70;68.10;;;;;;6221151;23;20005;-74
2022/10/06 14:15:49;;;;;;;5.20;1.00;;;30.30;64.40;;;;;;6194531;23;20120;-76
2022/10/06 14:18:30;;;;;;;3.72;1.00;;;31.40;63.20;;;;;;6192024;23;20246;-76
2022/10/06 14:20:59;;;;;;;4.55;0.98;;;31.50;60.70;;;;;;6192216;23;20032;-78
2022/10/06 14:23:41;;;;;;;5.28;1.60;;;31.30;60.50;;;;;;6193327;23;20015;-76
2022/10/06 14:26:09;;;;;;;7.20;1.45;;;30.60;60.90;;;;;;6191569;23;20072;-79
2022/10/06 14:28:36;;;;;;;4.22;1.00;;;30.20;61.10;;;;;;6192947;23;20068;-80
2022/10/06 14:31:02;;;;;;;3.85;1.00;;;30.50;62.90;;;;;;6192351;23;20215;-78
2022/10/06 14:33:31;;;;;;;6.25;1.27;;;31.00;60.40;;;;;;6191981;23;20025;-76
2022/10/06 14:35:57;;;;;;;6.30;1.27;;;31.50;59.10;;;;;;6193087;23;20009;-76
2022/10/06 14:38:23;;;;;;;4.05;1.02;;;32.10;58.80;;;;;;6193880;23;20024;-77
2022/10/06 14:40:49;;;;;;;4.28;0.73;;;32.30;58.10;;;;;;6193793;23;20015;-77
2022/10/06 14:43:15;;;;;;;2.72;0.70;;;31.50;59.30;;;;;;6192304;23;20052;-75
2022/10/06 14:45:42;;;;;;;5.30;0.98;;;29.90;59.70;;;;;;6192899;23;20287;-78
2022/10/06 14:48:09;;;;;;;4.47;1.15;;;28.60;62.20;;;;;;6191430;23;20001;-76
2022/10/06 14:50:35;;;;;;;5.82;0.90;;;27.80;63.60;;;;;;6192562;23;20064;-77
2022/10/06 14:53:01;;;;;;;3.38;1.00;;;27.60;66.00;;;;;;6192168;23;20020;-77
2022/10/06 14:55:29;;;;;;;5.40;1.10;;;28.10;64.80;;;;;;6168004;23;19993;-76
2022/10/06 14:57:58;;;;;;;5.20;3.03;;;28.50;65.60;;;;;;6192832;23;20009;-76
2022/10/06 15:00:27;;;;;;;4.32;1.20;;;28.80;64.50;;;;;;6191803;23;20008;-76
2022/10/06 15:02:55;;;;;;;6.03;3.00;;;28.20;63.40;;;;;;6201573;23;20063;-79
2022/10/06 15:05:23;;;;;;;5.55;1.20;;;28.10;67.10;;;;;;6222631;23;20017;-83
2022/10/06 15:10:34;;;;;;;6.90;1.02;;;27.20;65.60;;;;;;6272784;22;19951;-77
2022/10/06 15:13:03;;;;;;;4.57;1.20;;;26.90;66.50;;;;;;6222396;23;20027;-80
2022/10/06 15:15:30;;;;;;;4.82;1.08;;;27.20;66.20;;;;;;6224104;23;19992;-78
2022/10/06 15:17:56;;;;;;;5.17;0.93;;;27.20;66.70;;;;;;6221051;23;20067;-78
2022/10/06 15:20:22;;;;;;;5.82;1.20;;;26.20;67.40;;;;;;6196896;23;20194;-79
2022/10/06 15:22:48;;;;;;;4.70;1.10;;;25.30;68.80;;;;;;6246867;23;19992;-80
2022/10/06 15:31:11;;;;;;;3.15;0.90;;;23.40;73.60;;;;;;6228099;23;20007;-74
2022/10/06 15:33:36;;;;;;;3.78;0.95;;;22.90;76.20;;;;;;6253788;23;20017;-78
2022/10/06 15:36:15;;;;;;;7.97;1.67;;;22.50;78.20;;;;;;6259299;22;20015;-76
2022/10/06 15:38:41;;;;;;;4.40;0.90;;;22.20;78.60;;;;;;6230726;23;20048;-78
2022/10/06 15:41:08;;;;;;;4.63;0.98;;;22.10;80.40;;;;;;6234618;23;20009;-77
2022/10/06 15:43:54;;;;;;;4.55;1.00;;;22.10;78.00;;;;;;6249120;23;20028;-76
2022/10/06 15:46:25;;;;;;;5.10;1.23;;;22.00;78.50;;;;;;6223422;23;20012;-76
2022/10/06 15:48:59;;;;;;;5.50;1.13;;;22.40;78.20;;;;;;6223473;23;20012;-75
2022/10/06 15:51:31;;;;;;;10.80;5.82;;;23.20;76.40;;;;;;6224896;23;20008;-78
2022/10/06 15:53:57;;;;;;;6.25;2.78;;;24.50;73.60;;;;;;6224235;23;20004;-80
2022/10/06 15:56:24;;;;;;;6.28;1.88;;;25.40;70.70;;;;;;6224033;23;20012;-81
2022/10/06 15:58:50;;;;;;;5.87;1.30;;;26.00;70.70;;;;;;6223827;23;20001;-77
2022/10/06 16:01:41;;;;;;;5.97;1.42;;;26.60;67.80;;;;;;6222357;23;20205;-76
2022/10/06 16:04:22;;;;;;;5.97;1.10;;;26.70;67.60;;;;;;6249690;23;20063;-76
2022/10/06 16:06:52;;;;;;;4.75;0.98;;;26.80;67.00;;;;;;6255849;23;20325;-78
2022/10/06 16:09:19;;;;;;;5.60;1.45;;;26.30;67.30;;;;;;6256195;23;20003;-79
2022/10/06 16:11:47;;;;;;;5.72;1.15;;;25.80;70.10;;;;;;6229269;23;20066;-78
2022/10/06 16:14:14;;;;;;;5.80;1.48;;;25.00;70.90;;;;;;6204523;23;20197;-77
2022/10/06 16:16:41;;;;;;;5.30;1.02;;;24.40;72.20;;;;;;6254835;23;20003;-77
2022/10/06 16:19:10;;;;;;;7.53;2.08;;;23.70;72.80;;;;;;6229054;23;20000;-78
2022/10/06 16:21:36;;;;;;;5.00;2.85;;;23.00;75.80;;;;;;6230033;23;20004;-78
2022/10/06 16:27:02;;;;;;;5.60;1.73;;;22.10;80.00;;;;;;6255574;23;20258;-76
2022/10/06 16:29:28;;;;;;;4.45;1.05;;;21.60;80.10;;;;;;6229799;23;20000;-77
2022/10/06 16:31:54;;;;;;;7.07;1.50;;;21.20;79.60;;;;;;6255229;23;20007;-78
2022/10/06 16:34:20;;;;;;;3.65;1.15;;;20.80;81.40;;;;;;6255214;23;20290;-77
2022/10/06 16:36:46;;;;;;;3.97;1.35;;;20.50;84.40;;;;;;6254600;23;20015;-79
2022/10/06 16:39:17;;;;;;;4.25;1.20;;;20.20;85.10;;;;;;6229090;23;20236;-77
2022/10/06 16:41:43;;;;;;;6.78;1.27;;;19.90;86.30;;;;;;6254248;23;20000;-77
2022/10/06 16:44:09;;;;;;;4.72;1.10;;;19.70;85.60;;;;;;6228568;23;20269;-76
2022/10/06 16:46:36;;;;;;;3.30;1.20;;;19.50;87.00;;;;;;6254443;23;19992;-75
2022/10/06 16:49:02;;;;;;;5.15;1.58;;;19.30;89.30;;;;;;6255357;23;20000;-75
2022/10/06 16:51:33;;;;;;;6.10;1.33;;;19.20;90.00;;;;;;6228980;23;20186;-75
2022/10/06 16:54:07;;;;;;;5.05;1.33;;;19.10;88.90;;;;;;6256309;23;20000;-78
2022/10/06 16:56:44;;;;;;;5.80;1.20;;;19.10;89.90;;;;;;6255580;23;20242;-78
2022/10/06 16:59:13;;;;;;;2.13;0.90;;;19.00;90.30;;;;;;6202093;23;20012;-77
2022/10/06 17:01:39;;;;;;;3.80;1.85;;;18.90;90.20;;;;;;6252835;22;20047;-79
2022/10/06 17:04:15;;;;;;;7.20;1.67;;;18.90;90.70;;;;;;6221567;23;20021;-78
2022/10/06 17:06:44;;;;;;;4.85;1.40;;;18.80;90.30;;;;;;6192439;23;20009;-77
2022/10/06 17:09:13;;;;;;;8.25;3.88;;;18.60;90.20;;;;;;6192951;23;20020;-77
2022/10/06 17:11:42;;;;;;;8.70;4.60;;;18.50;90.50;;;;;;6192415;23;19997;-76
2022/10/06 17:14:08;;;;;;;6.90;1.90;;;18.50;90.80;;;;;;6217229;23;20056;-77
2022/10/06 17:16:37;;;;;;;6.25;2.30;;;18.30;90.80;;;;;;6195752;23;20021;-76
2022/10/06 17:19:04;;;;;;;5.97;2.30;;;18.30;91.50;;;;;;6192540;23;19997;-79
2022/10/06 17:21:31;;;;;;;6.32;2.35;;;18.40;91.70;;;;;;6193555;23;20001;-78
2022/10/06 17:23:59;;;;;;;7.20;1.83;;;18.40;91.80;;;;;;6167080;23;20282;-78
2022/10/06 17:26:27;;;;;;;6.72;2.00;;;18.40;90.80;;;;;;6217342;23;20001;-77
2022/10/06 17:28:55;;;;;;;5.45;2.28;;;18.40;91.30;;;;;;6191920;23;19989;-77
2022/10/06 17:31:24;;;;;;;6.75;2.75;;;18.30;92.20;;;;;;6193503;23;20057;-78
2022/10/06 17:33:50;;;;;;;7.25;3.13;;;18.30;92.00;;;;;;6216356;23;20016;-80
2022/10/06 17:36:22;;;;;;;5.43;2.75;;;18.20;92.20;;;;;;6193495;23;20012;-77
2022/10/06 17:38:51;;;;;;;8.82;2.67;;;18.20;92.60;;;;;;6193264;23;20001;-77
2022/10/06 17:41:21;;;;;;;6.88;2.58;;;18.10;92.40;;;;;;6191631;23;20073;-76
2022/10/06 17:43:48;;;;;;;6.65;2.33;;;18.00;92.80;;;;;;6193292;23;20039;-77
2022/10/06 17:46:19;;;;;;;8.37;2.80;;;18.00;92.80;;;;;;6185818;23;20056;-77
2022/10/06 17:48:48;;;;;;;17.45;9.15;;;18.00;93.30;;;;;;6191632;23;20048;-79
2022/10/06 17:51:16;;;;;;;11.80;6.28;;;17.90;93.20;;;;;;6193334;23;20011;-80
2022/10/06 17:53:55;;;;;;;10.80;4.22;;;17.80;93.30;;;;;;6142647;23;20035;-79
2022/10/06 17:56:28;;;;;;;9.70;3.97;;;17.80;93.40;;;;;;6167209;23;19997;-76
2022/10/06 17:58:57;;;;;;;7.28;3.90;;;17.70;93.50;;;;;;6166199;23;19997;-77
2022/10/06 18:01:25;;;;;;;9.38;3.65;;;17.80;94.30;;;;;;6193345;23;20231;-79
2022/10/06 18:03:54;;;;;;;8.02;3.08;;;17.80;94.20;;;;;;6214017;23;20278;-79
2022/10/06 18:06:23;;;;;;;23.50;16.50;;;17.90;94.20;;;;;;6197145;23;20019;-78
2022/10/06 18:08:49;;;;;;;;;;;17.80;93.90;;;;;;6197852;23;20001;-78
2022/10/06 18:14:11;;;;;;;9.57;3.95;;;17.70;94.20;;;;;;6196654;23;20008;-76
2022/10/06 18:16:42;;;;;;;8.68;4.00;;;17.50;94.50;;;;;;6222292;23;20113;-77
2022/10/06 18:19:12;;;;;;;11.07;3.63;;;17.40;94.80;;;;;;6171729;23;20005;-76
2022/10/06 18:21:40;;;;;;;8.77;3.58;;;17.30;95.00;;;;;;6223162;23;20222;-79
2022/10/06 18:24:12;;;;;;;8.10;2.50;;;17.30;95.00;;;;;;6222115;23;20008;-81
2022/10/06 18:26:40;;;;;;;6.80;3.33;;;17.20;95.30;;;;;;6221911;23;20004;-77
2022/10/06 18:29:08;;;;;;;6.85;3.20;;;17.20;95.70;;;;;;6220996;23;20290;-78
2022/10/06 18:31:34;;;;;;;6.75;3.03;;;17.30;95.80;;;;;;6221041;23;20013;-80
2022/10/06 18:34:00;;;;;;;9.13;4.13;;;17.30;96.00;;;;;;6168777;23;20016;-75
2022/10/06 18:36:27;;;;;;;8.55;3.75;;;17.30;96.10;;;;;;6201757;23;20004;-78
2022/10/06 18:38:54;;;;;;;8.13;3.90;;;17.20;95.90;;;;;;6251272;23;20004;-76
2022/10/06 18:41:21;;;;;;;6.93;3.30;;;17.10;96.00;;;;;;6226674;23;20274;-78
2022/10/06 18:43:48;;;;;;;12.27;4.40;;;17.00;96.20;;;;;;6201440;23;20092;-79
2022/10/06 18:49:12;;;;;;;8.90;3.92;;;16.80;97.10;;;;;;6228217;23;20031;-78
2022/10/06 18:51:43;;;;;;;9.45;3.90;;;16.60;96.80;;;;;;6203376;23;20038;-77
2022/10/06 18:54:18;;;;;;;10.95;4.30;;;16.50;97.30;;;;;;6200707;23;20011;-77
2022/10/06 18:56:49;;;;;;;6.40;3.08;;;16.40;97.20;;;;;;6225915;23;20004;-79
2022/10/06 18:59:15;;;;;;;7.43;3.78;;;16.30;97.60;;;;;;6199941;23;20058;-78